Time;durP1;ratioP1;P1;durP2;ratioP2;P2;SDS_P1;SDS_P2;PMS_P1;PMS_P2;Temp;Humidity;BMP_temperature;BMP_pressure;BME280_temperature;BME280_humidity;BME280_pressure;Samples;Min_cycle;Max_cycle;Signal;HPM_P1;HPM_P2
2022/06/14 00:01:46;;;;;;;2.40;1.80;;;;;;;15.68;71.33;97044.97;5055171;28;20722;-49
2022/06/14 00:04:12;;;;;;;3.67;1.90;;;;;;;15.61;71.89;97038.63;5056479;28;20246;-49
2022/06/14 00:06:39;;;;;;;2.27;2.07;;;;;;;15.56;70.61;97043.59;5056503;28;20242;-48
2022/06/14 00:09:07;;;;;;;5.27;2.30;;;;;;;15.53;70.77;97051.94;5061704;28;20298;-49
2022/06/14 00:11:37;;;;;;;3.37;2.30;;;;;;;15.51;71.58;97053.94;5062202;28;20231;-49
2022/06/14 00:14:06;;;;;;;2.80;1.70;;;;;;;15.53;70.13;97041.25;5065042;28;20286;-50
2022/06/14 00:16:34;;;;;;;2.97;2.00;;;;;;;15.51;69.40;97045.94;5064099;28;20285;-50
2022/06/14 00:19:01;;;;;;;1.80;1.70;;;;;;;15.54;70.88;97042.09;5061561;28;20529;-49
2022/06/14 00:21:28;;;;;;;3.63;2.03;;;;;;;15.53;69.82;97043.94;5066019;28;20214;-48
2022/06/14 00:23:54;;;;;;;2.13;1.90;;;;;;;15.53;70.54;97043.94;5072528;28;20209;-48
2022/06/14 00:26:23;;;;;;;2.40;2.10;;;;;;;15.52;70.41;97034.25;5083976;28;20322;-48
2022/06/14 00:28:49;;;;;;;2.53;1.87;;;;;;;15.45;72.60;97035.88;5075832;28;20285;-49
2022/06/14 00:31:19;;;;;;;4.53;1.80;;;;;;;15.50;70.02;97028.25;5075714;28;20549;-48
2022/06/14 00:33:47;;;;;;;2.03;1.90;;;;;;;15.48;69.68;97032.06;5075651;28;20289;-48
2022/06/14 00:36:21;;;;;;;2.30;2.10;;;;;;;15.37;71.91;97036.69;5075871;28;20217;-48
2022/06/14 00:38:49;;;;;;;2.10;2.00;;;;;;;15.37;70.17;97041.22;5069576;28;20302;-49
2022/06/14 00:41:27;;;;;;;2.53;1.83;;;;;;;15.32;70.78;97033.69;5055221;28;20211;-48
2022/06/14 00:43:54;;;;;;;2.07;1.67;;;;;;;15.36;69.96;97028.88;5055645;28;20297;-49
2022/06/14 00:46:24;;;;;;;2.33;2.13;;;;;;;15.32;70.75;97031.03;5055032;28;20670;-48
2022/06/14 00:48:56;;;;;;;3.53;2.20;;;;;;;15.23;71.79;97031.19;5055620;28;20210;-48
2022/06/14 00:51:25;;;;;;;3.47;1.80;;;;;;;15.19;71.16;97027.16;5055546;28;20293;-49
2022/06/14 00:53:56;;;;;;;3.00;2.00;;;;;;;15.12;71.26;97026.16;5055078;28;20221;-48
2022/06/14 00:56:27;;;;;;;3.03;1.80;;;;;;;15.11;72.40;97032.47;5055256;28;20199;-49
2022/06/14 00:58:56;;;;;;;2.27;1.90;;;;;;;15.16;70.82;97041.63;5055291;28;20600;-47
2022/06/14 01:01:27;;;;;;;2.90;2.23;;;;;;;15.02;74.56;97030.78;5055056;28;20195;-48
2022/06/14 01:04:00;;;;;;;2.77;1.87;;;;;;;15.00;74.32;97030.09;5055084;28;20289;-48
2022/06/14 01:06:31;;;;;;;2.70;2.23;;;;;;;14.95;73.54;97031.41;5055005;28;20276;-48
2022/06/14 01:09:02;;;;;;;2.87;2.10;;;;;;;14.98;71.12;97032.09;5054926;28;20238;-49
2022/06/14 01:11:33;;;;;;;3.17;2.00;;;;;;;14.88;75.01;97032.19;5042419;28;20221;-48
2022/06/14 01:14:01;;;;;;;2.57;1.90;;;;;;;14.84;73.00;97029.03;5055138;28;20213;-48
2022/06/14 01:16:27;;;;;;;2.97;2.20;;;;;;;14.78;74.06;97027.00;5054826;28;20203;-49
2022/06/14 01:18:54;;;;;;;3.47;2.03;;;;;;;14.68;74.58;97025.47;5054946;28;20294;-47
2022/06/14 01:21:20;;;;;;;5.27;2.17;;;;;;;14.68;74.28;97034.28;5054766;28;20211;-48
2022/06/14 01:23:48;;;;;;;1.97;1.83;;;;;;;14.64;75.91;97030.25;5055008;28;20551;-48
2022/06/14 01:26:19;;;;;;;2.30;2.10;;;;;;;14.64;74.36;97022.28;5054829;28;20234;-48
2022/06/14 01:28:51;;;;;;;2.47;2.03;;;;;;;14.69;74.14;97022.66;5054841;28;20290;-49
2022/06/14 01:31:19;;;;;;;2.27;2.07;;;;;;;14.66;75.08;97025.63;5054713;28;20231;-49
2022/06/14 01:33:48;;;;;;;3.03;2.03;;;;;;;14.66;74.16;97028.28;5054024;28;20631;-47
2022/06/14 01:36:18;;;;;;;2.33;2.10;;;;;;;14.66;72.75;97022.97;5054753;28;20211;-48
2022/06/14 01:38:46;;;;;;;4.17;2.37;;;;;;;14.63;74.14;97028.59;5054804;28;20293;-49
2022/06/14 01:41:27;;;;;;;2.50;2.27;;;;;;;14.61;72.93;97019.94;5056690;28;20638;-48
2022/06/14 01:44:02;;;;;;;3.13;2.27;;;;;;;14.60;71.96;97023.59;5042980;28;20678;-48
2022/06/14 01:46:32;;;;;;;5.43;2.27;;;;;;;14.41;74.12;97019.34;5053991;28;20719;-49
2022/06/14 01:51:54;;;;;;;3.37;2.47;;;;;;;14.38;75.04;97014.31;5054261;28;20207;-48
2022/06/14 01:54:26;;;;;;;4.87;2.07;;;;;;;14.33;76.43;97021.09;5054378;28;20817;-49
2022/06/14 01:57:01;;;;;;;2.40;2.20;;;;;;;14.28;77.15;97018.03;5047602;28;20285;-48
2022/06/14 01:59:36;;;;;;;2.90;2.20;;;;;;;14.28;76.79;97023.38;5074103;28;20305;-48
2022/06/14 02:02:07;;;;;;;2.20;2.00;;;;;;;14.24;77.92;97022.03;5065667;28;20201;-48
2022/06/14 02:04:39;;;;;;;4.07;2.30;;;;;;;14.24;76.95;97012.19;5071341;28;20206;-49
2022/06/14 02:07:11;;;;;;;4.23;1.97;;;;;;;14.32;74.64;97019.41;5074398;28;20250;-48
2022/06/14 02:09:48;;;;;;;2.43;2.20;;;;;;;14.29;74.21;97014.41;5074477;28;20699;-49
2022/06/14 02:12:21;;;;;;;2.70;2.30;;;;;;;14.25;75.95;97008.56;5074372;28;20213;-48
2022/06/14 02:14:51;;;;;;;2.37;2.17;;;;;;;14.19;78.00;97013.69;5074329;28;20233;-49
2022/06/14 02:17:25;;;;;;;4.40;2.20;;;;;;;14.18;75.09;97012.00;5074161;28;20198;-48
2022/06/14 02:19:57;;;;;;;2.40;2.20;;;;;;;14.15;77.84;97005.16;5063977;28;20196;-49
2022/06/14 02:22:31;;;;;;;3.00;2.30;;;;;;;14.11;78.79;97009.13;5054059;28;20203;-49
2022/06/14 02:25:03;;;;;;;2.93;2.23;;;;;;;14.11;77.98;97005.63;5053852;28;20642;-49
2022/06/14 02:27:35;;;;;;;2.57;2.10;;;;;;;14.00;77.26;97004.06;5054058;28;20306;-49
2022/06/14 02:30:09;;;;;;;3.33;2.27;;;;;;;14.12;74.81;97009.97;5053910;28;20203;-49
2022/06/14 02:32:43;;;;;;;3.10;1.90;;;;;;;14.08;74.89;97004.13;5054228;28;20209;-47
2022/06/14 02:35:14;;;;;;;2.33;2.13;;;;;;;14.02;75.85;96998.59;5054077;28;20211;-49
2022/06/14 02:37:44;;;;;;;4.23;2.10;;;;;;;13.98;77.95;97010.53;5054273;28;20210;-49
2022/06/14 02:40:15;;;;;;;2.87;2.20;;;;;;;13.89;78.20;97005.16;5054060;28;20431;-49
2022/06/14 02:42:51;;;;;;;2.73;2.13;;;;;;;13.91;78.18;97000.53;5053749;28;20207;-48
2022/06/14 02:45:22;;;;;;;4.30;2.50;;;;;;;13.89;78.78;97006.97;5055863;28;20345;-49
2022/06/14 02:47:54;;;;;;;3.40;2.17;;;;;;;13.93;79.20;97006.50;5057421;28;20609;-48
2022/06/14 02:50:27;;;;;;;3.57;2.40;;;;;;;13.92;78.50;97002.16;5057714;28;20533;-50
2022/06/14 02:52:56;;;;;;;3.00;2.37;;;;;;;13.91;77.55;97003.19;5057696;28;20203;-49
2022/06/14 02:55:29;;;;;;;2.60;2.40;;;;;;;13.90;78.77;97006.81;5057546;28;20209;-49
2022/06/14 02:58:01;;;;;;;2.87;1.97;;;;;;;13.83;78.80;96997.78;5057457;28;20299;-48
2022/06/14 03:00:31;;;;;;;4.00;2.20;;;;;;;13.83;79.21;97005.78;5068201;28;20213;-49
2022/06/14 03:03:02;;;;;;;3.07;2.30;;;;;;;13.93;76.67;97008.31;5059600;28;20256;-48
2022/06/14 03:05:33;;;;;;;4.60;2.30;;;;;;;13.84;78.25;96999.47;5057334;28;20284;-49
2022/06/14 03:08:02;;;;;;;5.10;2.50;;;;;;;13.82;79.07;96998.78;5056004;28;20227;-49
2022/06/14 03:10:34;;;;;;;4.00;2.40;;;;;;;13.74;79.90;96992.59;5057210;28;20222;-49
2022/06/14 03:13:08;;;;;;;3.60;2.10;;;;;;;13.74;79.08;96995.25;5057079;28;20302;-49
2022/06/14 03:15:39;;;;;;;4.30;2.37;;;;;;;13.72;78.55;97006.00;5057849;28;20218;-49
2022/06/14 03:18:14;;;;;;;4.47;2.13;;;;;;;13.71;80.30;97003.53;5077370;28;20283;-49
2022/06/14 03:20:50;;;;;;;3.57;2.70;;;;;;;13.66;79.62;97006.63;5059633;28;20689;-49
2022/06/14 03:23:22;;;;;;;3.90;2.47;;;;;;;13.65;79.11;97007.59;5057275;28;20282;-49
2022/06/14 03:25:55;;;;;;;2.63;2.10;;;;;;;13.63;81.02;97006.09;5056810;28;20195;-48
2022/06/14 03:28:26;;;;;;;6.90;2.40;;;;;;;13.61;80.96;97008.06;5056945;28;20219;-48
2022/06/14 03:30:56;;;;;;;3.20;2.50;;;;;;;13.68;79.37;97009.97;5056777;28;20305;-48
2022/06/14 03:33:25;;;;;;;3.07;2.37;;;;;;;13.59;80.14;97002.91;5056897;28;20211;-48
2022/06/14 03:35:55;;;;;;;3.90;2.53;;;;;;;13.63;80.66;97014.91;5056624;28;20226;-49
2022/06/14 03:38:25;;;;;;;4.30;2.50;;;;;;;13.66;79.25;97011.09;5056786;28;21362;-48
2022/06/14 03:40:52;;;;;;;2.40;2.20;;;;;;;13.63;80.13;97012.25;5056346;28;20305;-49
2022/06/14 03:43:20;;;;;;;3.20;2.43;;;;;;;13.61;81.11;97008.06;5056141;28;20552;-49
2022/06/14 03:45:52;;;;;;;2.87;2.57;;;;;;;13.58;78.84;97011.03;5056191;28;20231;-48
2022/06/14 03:48:19;;;;;;;3.30;2.80;;;;;;;13.60;80.73;97004.59;5056502;28;20215;-49
2022/06/14 03:50:55;;;;;;;3.60;2.43;;;;;;;13.63;79.52;97004.28;5056071;28;20214;-49
2022/06/14 03:53:36;;;;;;;4.17;2.17;;;;;;;13.69;78.31;97014.28;5056516;28;20210;-48
2022/06/14 03:56:10;;;;;;;4.03;2.47;;;;;;;13.67;77.85;97008.31;5056025;28;20203;-48
2022/06/14 03:58:48;;;;;;;3.10;2.30;;;;;;;13.67;80.78;97005.66;5056620;28;20203;-49
2022/06/14 04:01:20;;;;;;;4.80;2.63;;;;;;;13.69;82.29;97018.78;5055921;28;20675;-49
2022/06/14 04:03:56;;;;;;;4.97;2.43;;;;;;;13.69;82.47;97006.31;5055182;28;20207;-47
2022/06/14 04:06:33;;;;;;;2.57;2.37;;;;;;;13.72;81.45;97006.00;5056281;28;20217;-48
2022/06/14 04:09:06;;;;;;;5.40;2.70;;;;;;;13.78;83.35;97005.38;5055911;28;20290;-47
2022/06/14 04:11:45;;;;;;;2.60;2.33;;;;;;;13.90;81.80;97004.16;5056263;28;20211;-49
2022/06/14 04:14:22;;;;;;;7.77;2.63;;;;;;;14.13;82.79;97004.50;5059813;28;20284;-48
2022/06/14 04:16:55;;;;;;;4.60;2.47;;;;;;;14.58;80.81;96993.66;5075925;28;20658;-48
2022/06/14 04:19:47;;;;;;;5.20;2.73;;;;;;;14.87;79.56;97002.09;5063489;28;20223;-48
2022/06/14 04:22:20;;;;;;;4.40;3.07;;;;;;;15.11;78.24;96998.66;5068872;28;20198;-47
2022/06/14 04:24:51;;;;;;;2.53;2.20;;;;;;;15.67;74.48;96994.44;5072281;28;20281;-49
2022/06/14 04:27:19;;;;;;;2.83;2.53;;;;;;;15.74;75.76;96990.13;5054759;28;20231;-48
2022/06/14 04:29:51;;;;;;;2.03;1.93;;;;;;;15.94;73.75;96984.28;5055834;28;20215;-49
2022/06/14 04:32:22;;;;;;;4.20;2.70;;;;;;;16.08;73.73;96989.97;5055528;28;20822;-49
2022/06/14 04:34:51;;;;;;;3.27;2.30;;;;;;;16.50;70.03;96995.03;5055832;28;20217;-49
2022/06/14 04:37:23;;;;;;;4.57;2.42;;;;;;;16.26;72.93;96994.06;5055333;28;20298;-49
2022/06/14 04:39:54;;;;;;;7.00;2.70;;;;;;;16.11;74.20;96994.94;5055606;28;20207;-49
2022/06/14 04:42:24;;;;;;;3.28;2.50;;;;;;;16.09;74.41;96992.44;5055346;28;20294;-48
2022/06/14 04:44:55;;;;;;;3.42;2.55;;;;;;;16.35;72.78;96997.56;5055234;28;20230;-49
2022/06/14 04:47:26;;;;;;;3.35;2.72;;;;;;;16.61;72.62;97003.56;5055912;28;20317;-49
2022/06/14 04:49:55;;;;;;;3.42;2.53;;;;;;;16.62;71.76;96994.50;5055487;28;20207;-48
2022/06/14 04:52:24;;;;;;;4.00;2.58;;;;;;;16.69;70.23;96990.16;5055691;28;20604;-48
2022/06/14 04:54:55;;;;;;;2.77;2.47;;;;;;;16.82;70.77;97001.16;5054901;28;20289;-48
2022/06/14 04:57:26;;;;;;;3.10;2.77;;;;;;;16.89;69.55;97001.28;5055600;28;20195;-49
2022/06/14 04:59:57;;;;;;;3.53;2.60;;;;;;;16.88;64.60;97003.13;5055620;28;20313;-49
2022/06/14 05:02:31;;;;;;;4.83;2.60;;;;;;;16.78;66.83;96999.81;5055719;28;20203;-49
2022/06/14 05:05:03;;;;;;;5.20;2.60;;;;;;;16.66;69.53;97001.19;5043703;28;20571;-49
2022/06/14 05:07:32;;;;;;;2.95;2.22;;;;;;;16.70;68.58;96991.00;5055060;28;20252;-48
2022/06/14 05:10:02;;;;;;;4.03;2.40;;;;;;;16.82;64.33;96995.81;5055256;28;20294;-48
2022/06/14 05:12:33;;;;;;;4.20;2.95;;;;;;;16.92;64.51;96991.06;5056441;28;20229;-49
2022/06/14 05:15:03;;;;;;;3.28;2.70;;;;;;;17.10;64.42;96987.31;5065495;28;20296;-49
2022/06/14 05:17:35;;;;;;;3.35;2.28;;;;;;;17.27;62.12;96994.22;5075692;28;20297;-48
2022/06/14 05:20:06;;;;;;;9.67;2.73;;;;;;;17.36;61.12;96995.84;5051954;28;20290;-48
2022/06/14 05:22:37;;;;;;;4.72;3.00;;;;;;;17.54;60.88;96993.72;5054547;28;20290;-50
2022/06/14 05:25:05;;;;;;;2.78;2.45;;;;;;;17.67;60.38;96985.97;5054989;28;20234;-49
2022/06/14 05:27:45;;;;;;;5.72;2.47;;;;;;;17.97;60.24;96983.38;5041678;28;20223;-49
2022/06/14 05:30:21;;;;;;;3.72;2.53;;;;;;;18.13;59.83;96991.28;5055096;28;20206;-49
2022/06/14 05:32:53;;;;;;;3.75;2.70;;;;;;;18.38;57.79;96995.38;5055258;28;20361;-49
2022/06/14 05:35:33;;;;;;;6.30;2.97;;;;;;;18.45;55.89;96987.44;5054340;28;20210;-49
2022/06/14 05:38:09;;;;;;;4.07;2.40;;;;;;;18.51;57.63;96990.25;5055239;28;20301;-49
2022/06/14 05:40:38;;;;;;;6.05;2.67;;;;;;;18.75;57.86;96995.34;5055812;28;20210;-48
2022/06/14 05:43:08;;;;;;;5.35;2.72;;;;;;;18.99;57.97;96988.03;5056969;28;20215;-49
2022/06/14 05:45:39;;;;;;;3.83;2.58;;;;;;;19.06;57.44;96994.31;5057131;28;20593;-48
2022/06/14 05:48:09;;;;;;;3.35;2.92;;;;;;;19.17;57.13;96988.44;5073500;28;20279;-49
2022/06/14 05:50:39;;;;;;;3.80;2.60;;;;;;;19.41;55.17;96988.16;5078172;28;20206;-48
2022/06/14 05:53:09;;;;;;;6.05;2.80;;;;;;;19.72;57.26;96994.06;5079485;28;20194;-49
2022/06/14 05:55:39;;;;;;;2.75;2.55;;;;;;;19.91;55.82;96995.25;5087191;28;20195;-48
2022/06/14 05:58:10;;;;;;;3.65;2.65;;;;;;;19.96;54.29;96995.50;5078140;28;20214;-50
2022/06/14 06:00:43;;;;;;;3.58;2.70;;;;;;;19.91;54.88;96994.44;5078328;28;20168;-48
2022/06/14 06:03:17;;;;;;;3.30;2.78;;;;;;;20.23;53.55;96988.50;5077794;28;20183;-49
2022/06/14 06:05:46;;;;;;;6.50;2.80;;;;;;;20.12;53.41;96989.03;5076621;28;20201;-48
2022/06/14 06:08:17;;;;;;;3.40;2.83;;;;;;;20.18;52.68;96986.41;5077101;28;20218;-49
2022/06/14 06:10:47;;;;;;;3.33;2.45;;;;;;;20.11;55.42;96982.84;5077678;28;20182;-49
2022/06/14 06:13:19;;;;;;;5.32;2.80;;;;;;;20.67;55.06;96978.31;5087530;28;20208;-49
2022/06/14 06:15:48;;;;;;;4.28;3.17;;;;;;;21.03;54.76;96986.16;5065659;28;20218;-49
2022/06/14 06:18:23;;;;;;;4.20;3.05;;;;;;;21.17;53.12;96979.81;5056712;28;20635;-49
2022/06/14 06:20:54;;;;;;;9.05;2.85;;;;;;;21.57;50.44;96977.25;5058321;28;20202;-49
2022/06/14 06:23:25;;;;;;;3.97;3.10;;;;;;;21.63;52.37;96985.34;5058543;28;20682;-49
2022/06/14 06:25:54;;;;;;;5.90;3.20;;;;;;;21.90;50.50;96980.84;5058427;28;20199;-48
2022/06/14 06:28:26;;;;;;;5.75;3.05;;;;;;;22.11;49.29;96990.59;5058326;28;20237;-49
2022/06/14 06:30:54;;;;;;;4.43;2.70;;;;;;;22.21;50.27;96985.66;5057970;28;20290;-49
2022/06/14 06:33:29;;;;;;;7.95;3.30;;;;;;;22.20;50.04;96990.22;5058383;28;20211;-49
2022/06/14 06:36:10;;;;;;;5.75;2.63;;;;;;;22.47;48.59;96995.56;5058228;28;20203;-49
2022/06/14 06:38:43;;;;;;;6.65;2.85;;;;;;;22.43;50.26;96994.31;5058283;28;20256;-48
2022/06/14 06:44:07;;;;;;;7.05;2.97;;;;;;;22.68;50.30;96996.19;5057989;28;20210;-50
2022/06/14 06:46:37;;;;;;;2.72;2.50;;;;;;;22.79;48.52;96997.41;5056765;28;20325;-50
2022/06/14 06:49:07;;;;;;;4.45;2.83;;;;;;;22.93;49.80;96996.34;5056962;28;20227;-52
2022/06/14 06:51:40;;;;;;;3.08;2.75;;;;;;;23.15;50.44;96988.81;5057702;28;20701;-49
2022/06/14 06:54:13;;;;;;;2.97;2.67;;;;;;;23.24;47.30;96992.91;5058242;28;20206;-48
2022/06/14 06:56:44;;;;;;;4.65;3.05;;;;;;;23.47;45.14;96995.13;5057718;28;20636;-48
2022/06/14 06:59:14;;;;;;;4.20;2.60;;;;;;;23.86;47.34;96986.81;5057826;28;20206;-49
2022/06/14 07:01:45;;;;;;;5.75;3.10;;;;;;;23.98;47.67;96990.47;5057903;28;20203;-50
2022/06/14 07:04:19;;;;;;;9.55;3.65;;;;;;;24.00;46.11;96982.97;5057164;28;20203;-49
2022/06/14 07:06:52;;;;;;;5.60;3.65;;;;;;;24.34;48.18;96984.38;5057466;28;20294;-48
2022/06/14 07:09:22;;;;;;;5.00;3.05;;;;;;;24.14;45.61;96986.44;5060860;28;20222;-50
2022/06/14 07:11:52;;;;;;;3.80;2.80;;;;;;;24.36;46.11;96985.00;5077271;28;20206;-48
2022/06/14 07:14:23;;;;;;;6.43;3.35;;;;;;;24.13;45.23;96982.06;5077194;28;20207;-49
2022/06/14 07:16:53;;;;;;;3.13;2.78;;;;;;;24.22;45.71;96986.16;5077508;28;20206;-49
2022/06/14 07:19:39;;;;;;;12.57;5.15;;;;;;;24.39;46.69;96981.03;5065577;28;20264;-49
2022/06/14 07:22:11;;;;;;;3.83;2.90;;;;;;;24.52;45.53;96975.50;5052943;28;20261;-49
2022/06/14 07:24:43;;;;;;;4.40;2.97;;;;;;;24.42;45.11;96983.28;5057471;28;20196;-50
2022/06/14 07:27:13;;;;;;;4.88;3.10;;;;;;;24.32;47.41;96981.09;5057146;28;20235;-49
2022/06/14 07:29:43;;;;;;;6.07;3.00;;;;;;;24.68;45.91;96975.75;5056309;28;20313;-48
2022/06/14 07:32:14;;;;;;;4.93;3.13;;;;;;;24.60;44.51;96973.34;5057023;28;20211;-50
2022/06/14 07:34:43;;;;;;;4.45;2.95;;;;;;;24.85;45.72;96969.78;5057384;28;20199;-48
2022/06/14 07:37:15;;;;;;;6.85;3.30;;;;;;;24.73;44.82;96975.91;5056659;28;20580;-49
2022/06/14 07:39:43;;;;;;;5.40;3.20;;;;;;;24.59;45.42;96977.09;5055781;28;20286;-50
2022/06/14 07:42:16;;;;;;;5.97;2.72;;;;;;;25.00;45.12;96967.53;5056986;28;20207;-48
2022/06/14 07:44:51;;;;;;;6.55;2.85;;;;;;;25.30;44.27;96973.00;5070685;28;20242;-49
2022/06/14 07:47:23;;;;;;;3.85;2.95;;;;;;;25.27;45.51;96971.59;5076917;28;20293;-49
2022/06/14 07:49:56;;;;;;;3.08;2.78;;;;;;;25.47;45.17;96969.44;5074613;28;20228;-48
2022/06/14 07:52:26;;;;;;;4.65;2.75;;;;;;;25.37;46.31;96966.44;5056217;28;20298;-49
2022/06/14 07:54:57;;;;;;;3.08;2.83;;;;;;;25.33;42.83;96973.38;5056983;28;20295;-49
2022/06/14 07:57:27;;;;;;;5.30;2.53;;;;;;;25.40;44.11;96971.41;5057611;28;20278;-49
2022/06/14 08:01:07;;;;;;;4.10;2.95;;;;;;;24.96;45.37;96964.47;5062832;28;20214;-49
2022/06/14 08:02:46;;;;;;;5.50;2.97;;;;;;;25.17;44.86;96963.19;5064089;28;20229;-49
2022/06/14 08:05:18;;;;;;;5.18;2.83;;;;;;;25.50;44.71;96960.88;5078715;28;20221;-51
2022/06/14 08:07:46;;;;;;;8.50;3.00;;;;;;;25.83;44.33;96956.88;5081216;28;20236;-47
2022/06/14 08:10:18;;;;;;;3.55;2.50;;;;;;;25.92;44.42;96960.94;5064585;28;20199;-50
2022/06/14 08:12:47;;;;;;;5.63;2.85;;;;;;;25.62;43.77;96953.63;5058461;28;20726;-48
2022/06/14 08:15:17;;;;;;;4.00;2.50;;;;;;;25.95;46.06;96955.03;5055941;28;20207;-50
2022/06/14 08:17:47;;;;;;;6.90;2.88;;;;;;;26.20;43.48;96961.13;5055812;28;20718;-48
2022/06/14 08:20:21;;;;;;;8.43;2.70;;;;;;;26.18;43.84;96957.84;5056132;28;20290;-49
2022/06/14 08:22:53;;;;;;;4.18;2.70;;;;;;;26.37;42.63;96956.66;5056005;28;20310;-49
2022/06/14 08:25:23;;;;;;;4.28;3.00;;;;;;;26.47;40.78;96958.78;5055748;28;20604;-49
2022/06/14 08:27:53;;;;;;;5.45;3.00;;;;;;;26.30;42.54;96955.94;5067217;28;20288;-50
2022/06/14 08:30:25;;;;;;;4.90;3.10;;;;;;;26.26;42.46;96946.63;5079788;28;20214;-48
2022/06/14 08:32:55;;;;;;;4.15;3.10;;;;;;;26.28;41.48;96944.53;5055366;28;20279;-51
2022/06/14 08:35:26;;;;;;;5.63;2.85;;;;;;;26.28;42.09;96944.53;5055497;28;20214;-49
2022/06/14 08:37:56;;;;;;;4.07;2.70;;;;;;;26.41;43.30;96944.28;5055933;28;20286;-51
2022/06/14 08:40:51;;;;;;;5.07;2.83;;;;;;;26.57;43.56;96943.56;5055968;28;20292;-49
2022/06/14 08:43:22;;;;;;;6.90;2.80;;;;;;;26.75;41.45;96947.25;5054504;28;20631;-49
2022/06/14 08:46:12;;;;;;;5.15;2.80;;;;;;;26.61;42.28;96944.75;5055488;28;20239;-50
2022/06/14 08:48:42;;;;;;;3.92;3.10;;;;;;;26.62;42.65;96951.84;5041968;28;20241;-48
2022/06/14 08:51:27;;;;;;;4.65;3.15;;;;;;;26.58;41.40;96945.22;5055468;28;20580;-50
2022/06/14 08:54:33;;;;;;;5.70;2.65;;;;;;;26.33;39.91;96941.09;5053887;28;20623;-48
2022/06/14 08:57:24;;;;;;;6.00;3.15;;;;;;;26.46;45.04;96944.44;5026258;28;20294;-48
2022/06/14 09:00:04;;;;;;;3.33;2.65;;;;;;;26.81;41.93;96938.16;5055549;28;20198;-49
2022/06/14 09:03:14;;;;;;;4.22;2.78;;;;;;;26.61;42.45;96939.31;5054019;28;20206;-48
2022/06/14 09:05:59;;;;;;;5.68;2.58;;;;;;;26.69;41.89;96941.69;5026496;28;20203;-50
2022/06/14 09:08:52;;;;;;;8.93;3.30;;;;;;;26.76;42.08;96935.31;5055415;28;20222;-51
2022/06/14 09:11:49;;;;;;;6.05;3.22;;;;;;;26.98;42.98;96945.34;5055549;28;20635;-49
2022/06/14 09:14:37;;;;;;;6.85;2.80;;;;;;;26.68;44.40;96941.91;5049987;28;20234;-49
2022/06/14 09:17:19;;;;;;;4.80;2.70;;;;;;;26.85;41.78;96942.06;5055527;28;20555;-50
2022/06/14 09:20:00;;;;;;;3.40;2.20;;;;;;;27.14;41.93;96938.31;5055067;28;20298;-48
2022/06/14 09:22:38;;;;;;;4.70;2.90;;;;;;;27.25;40.87;96934.75;5055361;28;20207;-49
2022/06/14 09:25:17;;;;;;;2.75;2.47;;;;;;;27.55;41.31;96931.84;5055894;28;20205;-49
2022/06/14 09:28:00;;;;;;;6.03;2.90;;;;;;;27.52;41.69;96924.19;5043027;28;20203;-50
2022/06/14 09:30:51;;;;;;;4.80;2.65;;;;;;;27.30;41.65;96934.88;5055085;28;20210;-48
2022/06/14 09:33:51;;;;;;;5.07;2.65;;;;;;;27.15;42.93;96920.97;5054958;28;20257;-50
2022/06/14 09:36:55;;;;;;;4.50;2.28;;;;;;;27.53;43.20;96920.38;4990727;28;20221;-49
2022/06/14 09:40:07;;;;;;;6.70;2.63;;;;;;;27.61;40.41;96922.72;5045233;28;20214;-49
2022/06/14 09:43:09;;;;;;;9.10;2.80;;;;;;;27.68;37.74;96918.78;5044631;28;20709;-49
2022/06/14 09:45:52;;;;;;;3.65;2.40;;;;;;;27.94;40.47;96917.34;5029053;28;20242;-49
2022/06/14 09:48:38;;;;;;;5.60;2.80;;;;;;;27.82;38.07;96923.91;5054393;28;20203;-48
2022/06/14 09:51:32;;;;;;;2.47;2.25;;;;;;;27.86;38.78;96909.59;5054749;28;20210;-48
2022/06/14 09:54:42;;;;;;;3.78;2.42;;;;;;;27.58;40.74;96902.31;5058629;28;20203;-51
2022/06/14 09:57:33;;;;;;;2.38;2.17;;;;;;;27.83;35.65;96904.66;5061843;28;20206;-51
2022/06/14 10:00:13;;;;;;;4.55;2.25;;;;;;;28.01;36.22;96900.88;5061209;28;20648;-50
2022/06/14 10:02:52;;;;;;;6.95;2.50;;;;;;;28.20;38.38;96896.06;5061102;28;20341;-49
2022/06/14 10:05:30;;;;;;;5.32;2.45;;;;;;;28.46;36.28;96893.47;5061437;28;20202;-50
2022/06/14 10:08:29;;;;;;;4.20;1.67;;;;;;;28.34;34.47;96889.19;5060777;28;20730;-49
2022/06/14 10:11:16;;;;;;;2.38;1.75;;;;;;;28.55;33.59;96891.16;5000166;28;20201;-49
2022/06/14 10:14:05;;;;;;;3.53;1.90;;;;;;;28.59;38.18;96887.66;5056424;28;20271;-49
2022/06/14 10:16:57;;;;;;;2.70;2.00;;;;;;;28.79;34.12;96880.88;5061162;28;20294;-51
2022/06/14 10:19:37;;;;;;;7.53;1.98;;;;;;;28.75;33.06;96882.44;5061044;28;20226;-51
2022/06/14 10:22:14;;;;;;;3.35;1.95;;;;;;;28.63;34.56;96880.63;5061088;28;20294;-51
2022/06/14 10:24:45;;;;;;;3.85;1.92;;;;;;;28.87;34.43;96878.56;5060833;28;20289;-50
2022/06/14 10:30:15;;;;;;;2.30;1.63;;;;;;;28.99;33.58;96872.97;5060741;28;20360;-51
2022/06/14 10:33:06;;;;;;;3.17;1.80;;;;;;;28.82;32.98;96881.19;5061038;28;20206;-51
2022/06/14 10:35:37;;;;;;;2.20;2.00;;;;;;;29.04;32.99;96870.31;5060968;28;20635;-49
2022/06/14 10:38:22;;;;;;;2.47;2.28;;;;;;;29.24;34.67;96866.97;5063290;28;20245;-50
2022/06/14 10:40:54;;;;;;;5.55;2.30;;;;;;;29.14;35.23;96873.16;5063852;28;20290;-50
2022/06/14 10:43:32;;;;;;;2.95;1.95;;;;;;;29.05;35.49;96863.78;5063515;28;20604;-49
2022/06/14 10:46:03;;;;;;;3.65;2.03;;;;;;;28.91;32.91;96862.53;5061713;28;20253;-52
2022/06/14 10:48:58;;;;;;;2.47;2.13;;;;;;;29.38;34.98;96862.81;5061670;28;20635;-51
2022/06/14 10:51:35;;;;;;;3.65;2.10;;;;;;;29.53;34.30;96854.81;5061276;28;20254;-51
2022/06/14 10:54:09;;;;;;;2.72;2.13;;;;;;;29.56;32.82;96860.56;5062161;28;20206;-50
2022/06/14 10:56:53;;;;;;;4.72;1.90;;;;;;;29.37;34.18;96862.00;5079236;28;20293;-49
2022/06/14 10:59:38;;;;;;;3.28;2.05;;;;;;;29.64;34.34;96851.94;5080829;28;20202;-50
2022/06/14 11:02:15;;;;;;;3.03;2.20;;;;;;;29.28;32.51;96860.81;5071493;28;20218;-50
2022/06/14 11:04:48;;;;;;;2.92;1.85;;;;;;;29.37;33.93;96858.47;5077682;28;20281;-51
2022/06/14 11:07:50;;;;;;;2.83;2.00;;;;;;;29.24;32.43;96848.75;5077910;28;20268;-50
2022/06/14 11:10:31;;;;;;;2.72;2.00;;;;;;;29.33;33.52;96849.97;5077422;28;20240;-49
2022/06/14 11:13:05;;;;;;;2.85;1.88;;;;;;;29.29;34.14;96843.41;5076274;28;20206;-51
2022/06/14 11:15:37;;;;;;;3.08;1.92;;;;;;;29.71;34.85;96834.53;5063668;28;20206;-51
2022/06/14 11:18:39;;;;;;;3.10;2.33;;;;;;;29.76;32.92;96838.09;5057401;28;20226;-50
2022/06/14 11:21:23;;;;;;;4.72;2.75;;;;;;;29.64;35.52;96835.56;5044198;28;20229;-50
2022/06/14 11:23:57;;;;;;;4.15;2.03;;;;;;;29.53;32.51;96839.28;5070726;28;20289;-50
2022/06/14 11:26:31;;;;;;;3.63;2.15;;;;;;;29.68;33.30;96830.41;5067661;28;20202;-52
2022/06/14 11:29:07;;;;;;;2.70;2.00;;;;;;;29.61;33.40;96830.63;5076980;28;20301;-49
2022/06/14 11:31:40;;;;;;;3.92;1.80;;;;;;;29.73;33.22;96827.72;5064472;28;20195;-50
2022/06/14 11:34:27;;;;;;;2.33;2.05;;;;;;;29.72;33.81;96825.28;5044278;28;20369;-49
2022/06/14 11:37:06;;;;;;;2.25;1.98;;;;;;;29.60;32.78;96818.09;5056874;28;20207;-51
2022/06/14 11:39:37;;;;;;;8.38;2.63;;;;;;;29.85;32.83;96831.13;5056945;28;20210;-50
2022/06/14 11:42:07;;;;;;;5.13;1.88;;;;;;;29.84;31.59;96828.63;5056858;28;20207;-51
2022/06/14 11:44:56;;;;;;;4.72;2.33;;;;;;;29.66;31.39;96824.38;5055552;28;20211;-51
2022/06/14 11:47:29;;;;;;;3.50;2.15;;;;;;;29.57;30.77;96817.78;5056906;28;20587;-51
2022/06/14 11:50:06;;;;;;;2.60;1.55;;;;;;;29.77;30.92;96817.94;5056880;28;20219;-51
2022/06/14 11:52:59;;;;;;;6.28;2.50;;;;;;;29.49;31.68;96810.06;5057055;28;20199;-52
2022/06/14 11:55:29;;;;;;;3.05;1.95;;;;;;;29.20;29.52;96812.19;5057547;28;20218;-50
2022/06/14 11:58:07;;;;;;;6.20;1.70;;;;;;;29.53;30.49;96812.03;5075016;28;20191;-50
2022/06/14 12:00:42;;;;;;;2.10;1.88;;;;;;;29.63;30.05;96795.75;5065534;28;20217;-49
2022/06/14 12:03:23;;;;;;;3.45;2.13;;;;;;;29.59;29.35;96810.97;5058000;28;20199;-50
2022/06/14 12:05:57;;;;;;;1.70;1.60;;;;;;;29.64;28.85;96800.13;5056944;28;20211;-49
2022/06/14 12:08:45;;;;;;;2.92;1.75;;;;;;;28.94;29.58;96793.94;5055749;28;20206;-51
2022/06/14 12:11:21;;;;;;;9.93;2.53;;;;;;;29.36;29.57;96799.59;5056225;28;20222;-50
2022/06/14 12:14:18;;;;;;;3.75;1.90;;;;;;;29.44;28.75;96794.47;5056460;28;20202;-51
2022/06/14 12:16:48;;;;;;;2.50;1.60;;;;;;;29.83;29.04;96794.28;5040867;28;20294;-49
2022/06/14 12:19:21;;;;;;;2.83;2.05;;;;;;;29.70;29.53;96789.25;5056153;28;20214;-49